Monticello, MO (63457)

02:57 AM CDT die 26o April, anno 2017 (GMT -0500)
5 miles west of La Grange adjacent to a 5 acre lake. | | Change Station

Elev 623 ft 40.05 °N, 91.60 °W | Updated 9 seconds ago

Pluvia
Pluvia
61.5 °F
Feels Like 61.5 °F
N
2.9
Ventus Variabilis Ventus from Magis Zephyrus quam Auster
Gusts 4.9 mph

Hodie
High -- | Low -- °F
--% Chance of Precip.
Yesterday
High -- | Low -- °F
Precip. -- in
Pressio 29.43 in
Visibilitas 5.0 milia passuum
Clouds Few 2600 ft
Nubes Dispersae 3200 ft
Plerumque Nubila 3800 ft
Frigus in quo Ros apparet 61 °F
Umor 99%
Rainfall 0.27 in
Snow Depth Not available.
6:12 AM 7:57 PM
Waning Crescent, 0% visible
METAR KEOK 260735Z AUTO 00000KT 5SM -RA FEW026 SCT032 BKN038 16/15 A2943 RMK AO2
Pressio 29.43 in
Visibilitas 5.0 milia passuum
Clouds Few 2600 ft
Nubes Dispersae 3200 ft
Plerumque Nubila 3800 ft
Frigus in quo Ros apparet 61 °F
Umor 99%
Rainfall 0.27 in
Snow Depth Not available.
6:12 AM 7:57 PM
Waning Crescent, 0% visible
METAR KEOK 260735Z AUTO 00000KT 5SM -RA FEW026 SCT032 BKN038 16/15 A2943 RMK AO2

Get Severe Weather Alerts

Thanks for signing up!

Be on the lookout for a verification email in your inbox.

You'll start receiving the daily forecast at 8 AM.

×

10-Day Weather Forecast

Almanac

Astronomy

Apr. 26, 2017 Rise Set
Actual Time
Civil Twilight
Nautical Twilight
Astronomical Twilight
Moon
Length Of Visible Light
Length of Day
Tomorrow will be .
, % of the Moon is Illuminated

Today's Extremes

State Highs State Lows

Community

WunderPhotos

WunderBlog® & News

Nearby

Air Quality

  Air Quality AQ Index Pollutant
Not available.

Snow Depth

Station Depth Elevation

Earthquake Activity

City Distance Mag. Time & Date
Minimum magnitude displayed is 2.5.

Coastal Water Temperatures

Locus Calor

Stations

Nearby Weather Stations

Station Location Temp Frigus Venti Frigus in quo Ros apparet Umor Ventus Precip. Elev Renovata Type
                   

Watches & Warnings

There are currently no watches in effect.